sensor_id;sensor_type;location;lat;lon;timestamp;P1;durP1;ratioP1;P2;durP2;ratioP2
55756;SDS011;41676;44.610;44.078;2023-04-16T00:04:47;12.00;;;6.35;;
55756;SDS011;41676;44.610;44.078;2023-04-16T00:09:48;7.93;;;4.90;;
55756;SDS011;41676;44.610;44.078;2023-04-16T00:14:49;10.25;;;5.50;;
55756;SDS011;41676;44.610;44.078;2023-04-16T00:19:50;10.77;;;5.32;;
55756;SDS011;41676;44.610;44.078;2023-04-16T00:24:51;14.38;;;5.35;;
55756;SDS011;41676;44.610;44.078;2023-04-16T00:29:52;9.40;;;5.00;;
55756;SDS011;41676;44.610;44.078;2023-04-16T00:34:53;7.13;;;4.53;;
55756;SDS011;41676;44.610;44.078;2023-04-16T00:39:53;8.40;;;5.05;;
55756;SDS011;41676;44.610;44.078;2023-04-16T00:44:54;9.52;;;5.18;;
55756;SDS011;41676;44.610;44.078;2023-04-16T00:49:55;7.80;;;4.53;;
55756;SDS011;41676;44.610;44.078;2023-04-16T00:54:55;5.95;;;3.97;;
55756;SDS011;41676;44.610;44.078;2023-04-16T00:59:57;8.57;;;4.25;;
55756;SDS011;41676;44.610;44.078;2023-04-16T01:04:58;7.13;;;4.05;;
55756;SDS011;41676;44.610;44.078;2023-04-16T01:10:00;6.32;;;4.05;;
55756;SDS011;41676;44.610;44.078;2023-04-16T01:15:01;7.38;;;4.45;;
55756;SDS011;41676;44.610;44.078;2023-04-16T01:20:03;10.80;;;3.72;;
55756;SDS011;41676;44.610;44.078;2023-04-16T01:25:04;8.35;;;4.05;;
55756;SDS011;41676;44.610;44.078;2023-04-16T01:30:05;9.15;;;4.40;;
55756;SDS011;41676;44.610;44.078;2023-04-16T01:35:06;7.03;;;3.80;;
55756;SDS011;41676;44.610;44.078;2023-04-16T01:40:07;8.93;;;3.78;;
55756;SDS011;41676;44.610;44.078;2023-04-16T01:45:08;6.07;;;4.10;;
55756;SDS011;41676;44.610;44.078;2023-04-16T01:50:09;10.43;;;4.40;;
55756;SDS011;41676;44.610;44.078;2023-04-16T01:55:11;7.82;;;4.40;;
55756;SDS011;41676;44.610;44.078;2023-04-16T02:00:12;17.55;;;4.60;;
55756;SDS011;41676;44.610;44.078;2023-04-16T02:05:13;8.32;;;4.13;;
55756;SDS011;41676;44.610;44.078;2023-04-16T02:10:13;6.25;;;4.30;;
55756;SDS011;41676;44.610;44.078;2023-04-16T02:15:14;7.90;;;4.07;;
55756;SDS011;41676;44.610;44.078;2023-04-16T02:20:15;6.53;;;3.53;;
55756;SDS011;41676;44.610;44.078;2023-04-16T02:25:17;11.90;;;4.18;;
55756;SDS011;41676;44.610;44.078;2023-04-16T02:30:18;7.97;;;4.30;;
55756;SDS011;41676;44.610;44.078;2023-04-16T02:35:19;5.70;;;3.45;;
55756;SDS011;41676;44.610;44.078;2023-04-16T02:40:19;7.72;;;3.60;;
55756;SDS011;41676;44.610;44.078;2023-04-16T02:45:20;7.40;;;3.45;;
55756;SDS011;41676;44.610;44.078;2023-04-16T02:50:21;7.07;;;3.85;;
55756;SDS011;41676;44.610;44.078;2023-04-16T02:55:22;9.25;;;3.30;;
55756;SDS011;41676;44.610;44.078;2023-04-16T03:00:23;9.18;;;3.28;;
55756;SDS011;41676;44.610;44.078;2023-04-16T03:05:23;7.32;;;3.55;;
55756;SDS011;41676;44.610;44.078;2023-04-16T03:10:24;7.45;;;3.15;;
55756;SDS011;41676;44.610;44.078;2023-04-16T03:15:25;4.47;;;2.80;;
55756;SDS011;41676;44.610;44.078;2023-04-16T03:20:26;7.28;;;2.75;;
55756;SDS011;41676;44.610;44.078;2023-04-16T03:25:27;5.57;;;2.58;;
55756;SDS011;41676;44.610;44.078;2023-04-16T03:30:27;9.90;;;3.03;;
55756;SDS011;41676;44.610;44.078;2023-04-16T03:35:28;6.18;;;2.50;;
55756;SDS011;41676;44.610;44.078;2023-04-16T03:40:29;10.25;;;2.83;;
55756;SDS011;41676;44.610;44.078;2023-04-16T03:45:30;5.07;;;2.50;;
55756;SDS011;41676;44.610;44.078;2023-04-16T03:50:31;5.95;;;2.50;;
55756;SDS011;41676;44.610;44.078;2023-04-16T03:55:32;6.32;;;2.75;;
55756;SDS011;41676;44.610;44.078;2023-04-16T04:00:34;6.15;;;2.15;;
55756;SDS011;41676;44.610;44.078;2023-04-16T04:05:38;4.20;;;2.40;;
55756;SDS011;41676;44.610;44.078;2023-04-16T04:10:40;4.90;;;2.20;;
55756;SDS011;41676;44.610;44.078;2023-04-16T04:15:41;3.03;;;2.15;;
55756;SDS011;41676;44.610;44.078;2023-04-16T04:20:43;5.50;;;2.45;;
55756;SDS011;41676;44.610;44.078;2023-04-16T04:25:44;4.72;;;2.20;;
55756;SDS011;41676;44.610;44.078;2023-04-16T04:30:45;6.38;;;2.10;;
55756;SDS011;41676;44.610;44.078;2023-04-16T04:35:45;4.88;;;2.60;;
55756;SDS011;41676;44.610;44.078;2023-04-16T04:40:47;4.68;;;2.35;;
55756;SDS011;41676;44.610;44.078;2023-04-16T04:45:48;5.75;;;2.30;;
55756;SDS011;41676;44.610;44.078;2023-04-16T04:50:48;6.80;;;2.10;;
55756;SDS011;41676;44.610;44.078;2023-04-16T04:55:49;5.70;;;2.47;;
55756;SDS011;41676;44.610;44.078;2023-04-16T05:00:50;5.55;;;2.60;;
55756;SDS011;41676;44.610;44.078;2023-04-16T05:05:51;6.47;;;2.40;;
55756;SDS011;41676;44.610;44.078;2023-04-16T05:10:52;5.75;;;2.13;;
55756;SDS011;41676;44.610;44.078;2023-04-16T05:15:53;6.25;;;2.53;;
55756;SDS011;41676;44.610;44.078;2023-04-16T05:20:53;8.20;;;2.20;;
55756;SDS011;41676;44.610;44.078;2023-04-16T05:25:55;3.88;;;2.33;;
55756;SDS011;41676;44.610;44.078;2023-04-16T05:30:56;6.15;;;2.63;;
55756;SDS011;41676;44.610;44.078;2023-04-16T05:35:56;4.47;;;2.60;;
55756;SDS011;41676;44.610;44.078;2023-04-16T05:40:57;7.55;;;3.40;;
55756;SDS011;41676;44.610;44.078;2023-04-16T05:45:58;5.88;;;2.83;;
55756;SDS011;41676;44.610;44.078;2023-04-16T05:50:59;6.03;;;3.58;;
55756;SDS011;41676;44.610;44.078;2023-04-16T05:56:01;7.05;;;3.80;;
55756;SDS011;41676;44.610;44.078;2023-04-16T06:01:02;5.13;;;2.30;;
55756;SDS011;41676;44.610;44.078;2023-04-16T06:06:03;3.58;;;2.30;;
55756;SDS011;41676;44.610;44.078;2023-04-16T06:11:04;3.08;;;1.92;;
55756;SDS011;41676;44.610;44.078;2023-04-16T06:16:04;5.82;;;2.05;;
55756;SDS011;41676;44.610;44.078;2023-04-16T06:21:05;5.05;;;2.20;;
55756;SDS011;41676;44.610;44.078;2023-04-16T06:26:06;4.28;;;2.10;;
55756;SDS011;41676;44.610;44.078;2023-04-16T06:31:07;4.43;;;1.90;;
55756;SDS011;41676;44.610;44.078;2023-04-16T06:36:08;3.97;;;1.98;;
55756;SDS011;41676;44.610;44.078;2023-04-16T06:41:08;4.93;;;1.77;;
55756;SDS011;41676;44.610;44.078;2023-04-16T06:46:09;4.13;;;2.05;;
55756;SDS011;41676;44.610;44.078;2023-04-16T06:51:10;4.90;;;1.70;;
55756;SDS011;41676;44.610;44.078;2023-04-16T06:56:12;4.93;;;2.08;;
55756;SDS011;41676;44.610;44.078;2023-04-16T07:01:13;4.25;;;1.60;;
55756;SDS011;41676;44.610;44.078;2023-04-16T07:06:13;4.05;;;1.90;;
55756;SDS011;41676;44.610;44.078;2023-04-16T07:11:14;8.18;;;1.42;;
55756;SDS011;41676;44.610;44.078;2023-04-16T07:16:16;5.70;;;1.30;;
55756;SDS011;41676;44.610;44.078;2023-04-16T07:21:17;4.35;;;1.60;;
55756;SDS011;41676;44.610;44.078;2023-04-16T07:26:18;5.32;;;1.50;;
55756;SDS011;41676;44.610;44.078;2023-04-16T07:31:18;4.97;;;1.38;;
55756;SDS011;41676;44.610;44.078;2023-04-16T07:36:19;2.15;;;0.90;;
55756;SDS011;41676;44.610;44.078;2023-04-16T07:41:20;5.30;;;1.38;;
55756;SDS011;41676;44.610;44.078;2023-04-16T07:46:21;4.80;;;1.40;;
55756;SDS011;41676;44.610;44.078;2023-04-16T07:51:22;3.03;;;1.10;;
55756;SDS011;41676;44.610;44.078;2023-04-16T07:56:23;5.13;;;1.42;;
55756;SDS011;41676;44.610;44.078;2023-04-16T08:01:24;5.68;;;1.23;;
55756;SDS011;41676;44.610;44.078;2023-04-16T08:06:25;2.42;;;1.27;;
55756;SDS011;41676;44.610;44.078;2023-04-16T08:11:26;6.07;;;1.30;;
55756;SDS011;41676;44.610;44.078;2023-04-16T08:16:26;5.07;;;1.25;;
55756;SDS011;41676;44.610;44.078;2023-04-16T08:21:27;3.28;;;1.35;;
55756;SDS011;41676;44.610;44.078;2023-04-16T08:26:29;2.10;;;0.90;;
55756;SDS011;41676;44.610;44.078;2023-04-16T08:31:30;3.33;;;1.20;;
55756;SDS011;41676;44.610;44.078;2023-04-16T08:36:31;3.20;;;1.30;;
55756;SDS011;41676;44.610;44.078;2023-04-16T08:41:33;2.70;;;1.30;;
55756;SDS011;41676;44.610;44.078;2023-04-16T08:46:36;1.90;;;1.13;;
55756;SDS011;41676;44.610;44.078;2023-04-16T08:51:38;3.97;;;1.50;;
55756;SDS011;41676;44.610;44.078;2023-04-16T08:56:41;4.22;;;1.60;;
55756;SDS011;41676;44.610;44.078;2023-04-16T09:01:42;3.38;;;1.77;;
55756;SDS011;41676;44.610;44.078;2023-04-16T09:06:44;3.00;;;1.50;;
55756;SDS011;41676;44.610;44.078;2023-04-16T09:11:49;5.40;;;1.33;;
55756;SDS011;41676;44.610;44.078;2023-04-16T09:16:52;5.95;;;1.70;;
55756;SDS011;41676;44.610;44.078;2023-04-16T09:21:56;9.48;;;1.80;;
55756;SDS011;41676;44.610;44.078;2023-04-16T09:26:57;6.40;;;1.70;;
55756;SDS011;41676;44.610;44.078;2023-04-16T09:32:00;6.22;;;1.30;;
55756;SDS011;41676;44.610;44.078;2023-04-16T09:37:14;6.30;;;1.67;;
55756;SDS011;41676;44.610;44.078;2023-04-16T09:42:20;6.28;;;1.58;;
55756;SDS011;41676;44.610;44.078;2023-04-16T09:47:24;4.50;;;1.92;;
55756;SDS011;41676;44.610;44.078;2023-04-16T09:52:25;5.47;;;2.03;;
55756;SDS011;41676;44.610;44.078;2023-04-16T09:57:26;5.18;;;1.80;;
55756;SDS011;41676;44.610;44.078;2023-04-16T10:02:28;7.00;;;1.60;;
55756;SDS011;41676;44.610;44.078;2023-04-16T10:07:33;4.35;;;1.48;;
55756;SDS011;41676;44.610;44.078;2023-04-16T10:12:35;10.10;;;1.60;;
55756;SDS011;41676;44.610;44.078;2023-04-16T10:17:36;10.85;;;2.10;;
55756;SDS011;41676;44.610;44.078;2023-04-16T10:22:38;5.22;;;1.60;;
55756;SDS011;41676;44.610;44.078;2023-04-16T10:27:39;15.68;;;1.77;;
55756;SDS011;41676;44.610;44.078;2023-04-16T10:32:40;7.78;;;1.85;;
55756;SDS011;41676;44.610;44.078;2023-04-16T10:37:41;4.13;;;1.77;;
55756;SDS011;41676;44.610;44.078;2023-04-16T10:42:52;5.97;;;1.50;;
55756;SDS011;41676;44.610;44.078;2023-04-16T10:47:57;11.93;;;2.83;;
55756;SDS011;41676;44.610;44.078;2023-04-16T10:58:28;13.07;;;1.90;;
55756;SDS011;41676;44.610;44.078;2023-04-16T11:03:34;8.48;;;1.65;;
55756;SDS011;41676;44.610;44.078;2023-04-16T11:08:35;8.75;;;1.63;;
55756;SDS011;41676;44.610;44.078;2023-04-16T11:13:37;8.95;;;1.80;;
55756;SDS011;41676;44.610;44.078;2023-04-16T11:18:43;4.55;;;1.40;;
55756;SDS011;41676;44.610;44.078;2023-04-16T11:23:45;9.77;;;1.83;;
55756;SDS011;41676;44.610;44.078;2023-04-16T11:28:47;9.07;;;1.60;;
55756;SDS011;41676;44.610;44.078;2023-04-16T11:33:48;7.50;;;1.33;;
55756;SDS011;41676;44.610;44.078;2023-04-16T11:38:50;14.80;;;1.80;;
55756;SDS011;41676;44.610;44.078;2023-04-16T11:43:50;7.93;;;1.65;;
55756;SDS011;41676;44.610;44.078;2023-04-16T11:48:52;6.93;;;1.50;;
55756;SDS011;41676;44.610;44.078;2023-04-16T11:53:54;4.88;;;1.67;;
55756;SDS011;41676;44.610;44.078;2023-04-16T11:59:11;6.40;;;1.58;;
55756;SDS011;41676;44.610;44.078;2023-04-16T12:04:19;4.32;;;1.48;;
55756;SDS011;41676;44.610;44.078;2023-04-16T12:09:25;6.38;;;1.73;;
55756;SDS011;41676;44.610;44.078;2023-04-16T12:14:28;6.68;;;1.40;;
55756;SDS011;41676;44.610;44.078;2023-04-16T12:19:30;4.47;;;1.30;;
55756;SDS011;41676;44.610;44.078;2023-04-16T12:24:32;6.13;;;1.40;;
55756;SDS011;41676;44.610;44.078;2023-04-16T12:29:36;3.63;;;1.25;;
55756;SDS011;41676;44.610;44.078;2023-04-16T12:34:48;3.90;;;1.30;;
55756;SDS011;41676;44.610;44.078;2023-04-16T12:39:49;4.35;;;1.45;;
55756;SDS011;41676;44.610;44.078;2023-04-16T12:44:50;2.58;;;1.13;;
55756;SDS011;41676;44.610;44.078;2023-04-16T12:49:51;8.68;;;1.48;;
55756;SDS011;41676;44.610;44.078;2023-04-16T12:54:52;6.32;;;1.20;;
55756;SDS011;41676;44.610;44.078;2023-04-16T12:59:56;7.95;;;1.20;;
55756;SDS011;41676;44.610;44.078;2023-04-16T13:09:58;9.13;;;1.30;;
55756;SDS011;41676;44.610;44.078;2023-04-16T13:14:59;4.65;;;1.30;;
55756;SDS011;41676;44.610;44.078;2023-04-16T13:20:00;7.70;;;1.38;;
55756;SDS011;41676;44.610;44.078;2023-04-16T13:25:00;8.57;;;1.38;;
55756;SDS011;41676;44.610;44.078;2023-04-16T13:30:01;16.70;;;1.77;;
55756;SDS011;41676;44.610;44.078;2023-04-16T13:35:03;3.35;;;1.40;;
55756;SDS011;41676;44.610;44.078;2023-04-16T13:40:04;4.07;;;1.40;;
55756;SDS011;41676;44.610;44.078;2023-04-16T13:45:06;4.57;;;1.27;;
55756;SDS011;41676;44.610;44.078;2023-04-16T13:50:09;3.25;;;1.13;;
55756;SDS011;41676;44.610;44.078;2023-04-16T13:55:10;6.53;;;1.52;;
55756;SDS011;41676;44.610;44.078;2023-04-16T14:00:13;5.13;;;1.20;;
55756;SDS011;41676;44.610;44.078;2023-04-16T14:05:14;8.60;;;1.70;;
55756;SDS011;41676;44.610;44.078;2023-04-16T14:10:15;3.58;;;1.50;;
55756;SDS011;41676;44.610;44.078;2023-04-16T14:15:16;2.72;;;1.17;;
55756;SDS011;41676;44.610;44.078;2023-04-16T14:20:18;4.32;;;1.10;;
55756;SDS011;41676;44.610;44.078;2023-04-16T14:30:29;3.75;;;1.05;;
55756;SDS011;41676;44.610;44.078;2023-04-16T14:40:40;5.88;;;1.38;;
55756;SDS011;41676;44.610;44.078;2023-04-16T14:45:41;3.17;;;1.50;;
55756;SDS011;41676;44.610;44.078;2023-04-16T14:50:42;3.70;;;1.50;;
55756;SDS011;41676;44.610;44.078;2023-04-16T14:55:43;5.38;;;1.38;;
55756;SDS011;41676;44.610;44.078;2023-04-16T15:00:44;3.97;;;1.52;;
55756;SDS011;41676;44.610;44.078;2023-04-16T15:10:55;10.70;;;1.60;;
55756;SDS011;41676;44.610;44.078;2023-04-16T15:21:06;4.35;;;1.20;;
55756;SDS011;41676;44.610;44.078;2023-04-16T15:26:07;10.68;;;1.65;;
55756;SDS011;41676;44.610;44.078;2023-04-16T15:31:08;4.82;;;1.77;;
55756;SDS011;41676;44.610;44.078;2023-04-16T15:47:41;7.65;;;1.83;;
55756;SDS011;41676;44.610;44.078;2023-04-16T15:52:45;12.60;;;1.73;;
55756;SDS011;41676;44.610;44.078;2023-04-16T15:57:46;4.78;;;1.50;;
55756;SDS011;41676;44.610;44.078;2023-04-16T16:02:47;9.05;;;1.77;;
55756;SDS011;41676;44.610;44.078;2023-04-16T16:07:47;6.38;;;1.45;;
55756;SDS011;41676;44.610;44.078;2023-04-16T16:12:48;3.60;;;1.30;;
55756;SDS011;41676;44.610;44.078;2023-04-16T16:17:49;5.50;;;1.40;;
55756;SDS011;41676;44.610;44.078;2023-04-16T16:22:51;5.60;;;1.15;;
55756;SDS011;41676;44.610;44.078;2023-04-16T16:27:52;4.85;;;1.40;;
55756;SDS011;41676;44.610;44.078;2023-04-16T16:32:53;7.35;;;1.35;;
55756;SDS011;41676;44.610;44.078;2023-04-16T16:37:54;5.38;;;1.67;;
55756;SDS011;41676;44.610;44.078;2023-04-16T16:42:56;6.22;;;1.50;;
55756;SDS011;41676;44.610;44.078;2023-04-16T16:47:57;3.70;;;1.50;;
55756;SDS011;41676;44.610;44.078;2023-04-16T16:52:58;3.55;;;1.65;;
55756;SDS011;41676;44.610;44.078;2023-04-16T16:57:59;9.77;;;1.35;;
55756;SDS011;41676;44.610;44.078;2023-04-16T17:03:00;6.57;;;1.50;;
55756;SDS011;41676;44.610;44.078;2023-04-16T17:08:01;7.57;;;1.50;;
55756;SDS011;41676;44.610;44.078;2023-04-16T17:13:01;3.65;;;1.40;;
55756;SDS011;41676;44.610;44.078;2023-04-16T17:18:02;7.57;;;1.40;;
55756;SDS011;41676;44.610;44.078;2023-04-16T17:34:09;2.58;;;1.02;;
55756;SDS011;41676;44.610;44.078;2023-04-16T17:39:10;6.10;;;1.30;;
55756;SDS011;41676;44.610;44.078;2023-04-16T17:44:11;6.90;;;1.42;;
55756;SDS011;41676;44.610;44.078;2023-04-16T17:49:11;5.03;;;1.75;;
55756;SDS011;41676;44.610;44.078;2023-04-16T17:54:12;4.72;;;1.58;;
55756;SDS011;41676;44.610;44.078;2023-04-16T17:59:13;3.67;;;1.30;;
55756;SDS011;41676;44.610;44.078;2023-04-16T18:04:14;5.65;;;1.50;;
55756;SDS011;41676;44.610;44.078;2023-04-16T18:09:15;6.57;;;1.40;;
55756;SDS011;41676;44.610;44.078;2023-04-16T18:14:16;4.53;;;1.58;;
55756;SDS011;41676;44.610;44.078;2023-04-16T18:19:20;7.57;;;1.50;;
55756;SDS011;41676;44.610;44.078;2023-04-16T18:24:21;4.57;;;1.80;;
55756;SDS011;41676;44.610;44.078;2023-04-16T18:29:22;7.85;;;1.52;;
55756;SDS011;41676;44.610;44.078;2023-04-16T18:34:23;3.25;;;1.52;;
55756;SDS011;41676;44.610;44.078;2023-04-16T18:39:24;6.13;;;1.65;;
55756;SDS011;41676;44.610;44.078;2023-04-16T18:44:25;4.45;;;1.50;;
55756;SDS011;41676;44.610;44.078;2023-04-16T18:49:26;5.65;;;1.83;;
55756;SDS011;41676;44.610;44.078;2023-04-16T18:54:27;7.22;;;1.50;;
55756;SDS011;41676;44.610;44.078;2023-04-16T18:59:27;2.83;;;1.33;;
55756;SDS011;41676;44.610;44.078;2023-04-16T19:04:28;4.68;;;1.50;;
55756;SDS011;41676;44.610;44.078;2023-04-16T19:09:29;6.70;;;2.03;;
55756;SDS011;41676;44.610;44.078;2023-04-16T19:14:30;5.18;;;1.90;;
55756;SDS011;41676;44.610;44.078;2023-04-16T19:19:32;5.10;;;1.70;;
55756;SDS011;41676;44.610;44.078;2023-04-16T19:24:32;7.05;;;1.63;;
55756;SDS011;41676;44.610;44.078;2023-04-16T19:29:33;5.70;;;1.80;;
55756;SDS011;41676;44.610;44.078;2023-04-16T19:34:42;6.80;;;2.08;;
55756;SDS011;41676;44.610;44.078;2023-04-16T19:39:43;4.93;;;1.75;;
55756;SDS011;41676;44.610;44.078;2023-04-16T19:44:44;4.93;;;2.10;;
55756;SDS011;41676;44.610;44.078;2023-04-16T19:49:45;5.28;;;2.10;;
55756;SDS011;41676;44.610;44.078;2023-04-16T19:54:46;5.85;;;2.30;;
55756;SDS011;41676;44.610;44.078;2023-04-16T19:59:47;4.78;;;2.20;;
55756;SDS011;41676;44.610;44.078;2023-04-16T20:04:48;6.22;;;2.17;;
55756;SDS011;41676;44.610;44.078;2023-04-16T20:09:49;4.18;;;2.10;;
55756;SDS011;41676;44.610;44.078;2023-04-16T20:14:49;5.78;;;1.90;;
55756;SDS011;41676;44.610;44.078;2023-04-16T20:19:50;6.95;;;2.08;;
55756;SDS011;41676;44.610;44.078;2023-04-16T20:24:51;5.22;;;2.22;;
55756;SDS011;41676;44.610;44.078;2023-04-16T20:29:54;4.47;;;1.90;;
55756;SDS011;41676;44.610;44.078;2023-04-16T20:34:55;5.57;;;2.30;;
55756;SDS011;41676;44.610;44.078;2023-04-16T20:39:57;5.65;;;2.13;;
55756;SDS011;41676;44.610;44.078;2023-04-16T20:44:57;3.95;;;1.90;;
55756;SDS011;41676;44.610;44.078;2023-04-16T20:50:00;6.32;;;2.33;;
55756;SDS011;41676;44.610;44.078;2023-04-16T20:55:02;4.00;;;2.17;;
55756;SDS011;41676;44.610;44.078;2023-04-16T21:00:03;4.13;;;2.00;;
55756;SDS011;41676;44.610;44.078;2023-04-16T21:05:08;3.83;;;1.88;;
55756;SDS011;41676;44.610;44.078;2023-04-16T21:10:13;6.07;;;2.95;;
55756;SDS011;41676;44.610;44.078;2023-04-16T21:15:19;11.02;;;4.07;;
55756;SDS011;41676;44.610;44.078;2023-04-16T21:20:20;8.77;;;2.95;;
55756;SDS011;41676;44.610;44.078;2023-04-16T21:25:21;7.45;;;2.42;;
55756;SDS011;41676;44.610;44.078;2023-04-16T21:30:23;10.10;;;3.00;;
55756;SDS011;41676;44.610;44.078;2023-04-16T21:35:23;7.20;;;2.70;;
55756;SDS011;41676;44.610;44.078;2023-04-16T21:40:25;5.78;;;2.63;;
55756;SDS011;41676;44.610;44.078;2023-04-16T21:45:26;8.90;;;2.50;;
55756;SDS011;41676;44.610;44.078;2023-04-16T21:50:26;6.13;;;2.38;;
55756;SDS011;41676;44.610;44.078;2023-04-16T21:55:27;4.65;;;2.15;;
55756;SDS011;41676;44.610;44.078;2023-04-16T22:00:32;4.60;;;2.08;;
55756;SDS011;41676;44.610;44.078;2023-04-16T22:05:33;4.22;;;2.30;;
55756;SDS011;41676;44.610;44.078;2023-04-16T22:10:34;6.30;;;2.70;;
55756;SDS011;41676;44.610;44.078;2023-04-16T22:15:34;5.90;;;2.78;;
55756;SDS011;41676;44.610;44.078;2023-04-16T22:20:35;4.40;;;2.50;;
55756;SDS011;41676;44.610;44.078;2023-04-16T22:25:38;4.38;;;2.13;;
55756;SDS011;41676;44.610;44.078;2023-04-16T22:30:38;5.32;;;2.22;;
55756;SDS011;41676;44.610;44.078;2023-04-16T22:35:39;5.18;;;2.33;;
55756;SDS011;41676;44.610;44.078;2023-04-16T22:40:41;9.88;;;2.80;;
55756;SDS011;41676;44.610;44.078;2023-04-16T22:45:42;4.95;;;2.42;;
55756;SDS011;41676;44.610;44.078;2023-04-16T22:50:47;6.65;;;2.85;;
55756;SDS011;41676;44.610;44.078;2023-04-16T22:55:50;6.00;;;2.67;;
55756;SDS011;41676;44.610;44.078;2023-04-16T23:00:51;5.45;;;2.80;;
55756;SDS011;41676;44.610;44.078;2023-04-16T23:05:52;8.13;;;2.25;;
55756;SDS011;41676;44.610;44.078;2023-04-16T23:10:52;6.03;;;2.38;;
55756;SDS011;41676;44.610;44.078;2023-04-16T23:15:53;4.38;;;2.63;;
55756;SDS011;41676;44.610;44.078;2023-04-16T23:20:54;7.53;;;2.70;;
55756;SDS011;41676;44.610;44.078;2023-04-16T23:25:55;4.57;;;2.35;;
55756;SDS011;41676;44.610;44.078;2023-04-16T23:30:56;4.35;;;2.50;;
55756;SDS011;41676;44.610;44.078;2023-04-16T23:35:56;6.45;;;2.40;;
55756;SDS011;41676;44.610;44.078;2023-04-16T23:40:57;6.05;;;2.70;;
55756;SDS011;41676;44.610;44.078;2023-04-16T23:45:58;5.10;;;2.72;;
55756;SDS011;41676;44.610;44.078;2023-04-16T23:50:59;5.70;;;2.10;;
55756;SDS011;41676;44.610;44.078;2023-04-16T23:55:59;4.57;;;2.30;;
